Time;durP1;ratioP1;P1;durP2;ratioP2;P2;SDS_P1;SDS_P2;PMS_P1;PMS_P2;Temp;Humidity;BMP_temperature;BMP_pressure;BME280_temperature;BME280_humidity;BME280_pressure;Samples;Min_cycle;Max_cycle;Signal;HPM_P1;HPM_P2
2022/11/27 00:00:08;;;;;;;26.63;6.68;;;;;;;;;;5031937;28;20044;-77
2022/11/27 00:02:35;;;;;;;32.00;6.75;;;;;;;;;;5052575;28;20155;-77
2022/11/27 00:05:02;;;;;;;27.15;6.45;;;;;;;;;;5023945;28;20068;-78
2022/11/27 00:07:30;;;;;;;28.73;7.07;;;;;;;;;;5034447;28;20064;-78
2022/11/27 00:09:57;;;;;;;23.88;6.32;;;;;;;;;;5030858;28;20064;-77
2022/11/27 00:12:24;;;;;;;35.05;6.57;;;;;;;;;;5028423;28;20389;-78
2022/11/27 00:14:51;;;;;;;27.13;7.03;;;;;;;;;;5024495;28;20060;-76
2022/11/27 00:17:20;;;;;;;27.83;6.22;;;;;;;;;;5025127;28;20041;-77
2022/11/27 00:19:47;;;;;;;28.85;6.22;;;;;;;;;;5025925;28;20053;-77
2022/11/27 00:22:14;;;;;;;21.58;6.25;;;;;;;;;;5025075;28;20052;-76
2022/11/27 00:24:43;;;;;;;29.02;6.47;;;;;;;;;;5016719;28;20049;-77
2022/11/27 00:27:10;;;;;;;26.00;6.20;;;;;;;;;;5024126;28;20064;-76
2022/11/27 00:29:38;;;;;;;33.97;7.13;;;;;;;;;;5022702;28;20057;-78
2022/11/27 00:32:07;;;;;;;29.15;6.57;;;;;;;;;;5031678;28;20040;-78
2022/11/27 00:34:35;;;;;;;26.08;5.53;;;;;;;;;;5027795;28;20057;-77
2022/11/27 00:37:02;;;;;;;28.52;6.93;;;;;;;;;;5030041;28;20048;-77
2022/11/27 00:39:30;;;;;;;27.67;5.97;;;;;;;;;;5021831;28;20038;-76
2022/11/27 00:41:57;;;;;;;26.27;5.93;;;;;;;;;;5022083;28;20455;-78
2022/11/27 00:44:24;;;;;;;26.60;6.70;;;;;;;;;;5028379;28;20068;-76
2022/11/27 00:46:52;;;;;;;30.67;5.75;;;;;;;;;;5024664;28;20443;-77
2022/11/27 00:49:19;;;;;;;21.08;5.07;;;;;;;;;;5031114;28;20042;-76
2022/11/27 00:51:47;;;;;;;24.13;5.43;;;;;;;;;;5029460;28;20095;-78
2022/11/27 00:54:15;;;;;;;20.10;6.05;;;;;;;;;;5028620;28;20059;-78
2022/11/27 00:56:42;;;;;;;26.85;5.70;;;;;;;;;;5031440;28;20495;-78
2022/11/27 00:59:10;;;;;;;20.00;4.80;;;;;;;;;;5028593;28;20056;-77
2022/11/27 01:01:39;;;;;;;23.63;5.82;;;;;;;;;;5023817;28;20065;-76
2022/11/27 01:04:08;;;;;;;26.52;5.25;;;;;;;;;;5021362;28;20048;-78
2022/11/27 01:06:35;;;;;;;31.63;5.97;;;;;;;;;;5019601;28;20045;-79
2022/11/27 01:09:04;;;;;;;15.70;5.07;;;;;;;;;;5024041;28;20503;-79
2022/11/27 01:11:32;;;;;;;27.20;6.00;;;;;;;;;;5021592;28;20071;-76
2022/11/27 01:14:01;;;;;;;30.73;6.38;;;;;;;;;;5020796;28;20069;-77
2022/11/27 01:16:31;;;;;;;28.30;5.25;;;;;;;;;;5019193;28;20158;-78
2022/11/27 01:19:00;;;;;;;25.35;5.18;;;;;;;;;;5018752;28;20068;-77
2022/11/27 01:21:28;;;;;;;25.13;5.38;;;;;;;;;;5022824;28;20053;-77
2022/11/27 01:23:55;;;;;;;32.75;7.57;;;;;;;;;;5022035;28;20128;-77
2022/11/27 01:26:23;;;;;;;22.75;5.43;;;;;;;;;;5021208;28;20412;-77
2022/11/27 01:28:52;;;;;;;20.95;5.57;;;;;;;;;;5018297;28;20937;-80
2022/11/27 01:31:21;;;;;;;24.35;6.15;;;;;;;;;;5018117;28;20112;-78
2022/11/27 01:33:48;;;;;;;19.77;5.45;;;;;;;;;;5016220;28;20064;-77
2022/11/27 01:36:16;;;;;;;33.35;6.90;;;;;;;;;;5021848;28;20573;-77
2022/11/27 01:38:43;;;;;;;25.65;5.68;;;;;;;;;;5024441;28;20049;-77
2022/11/27 01:41:14;;;;;;;23.98;5.05;;;;;;;;;;5029607;28;20060;-77
2022/11/27 01:43:44;;;;;;;26.02;5.47;;;;;;;;;;5032782;28;20068;-77
2022/11/27 01:46:32;;;;;;;18.17;5.20;;;;;;;;;;5035975;28;20770;-77
2022/11/27 01:49:03;;;;;;;23.58;5.75;;;;;;;;;;5027986;28;20072;-78
2022/11/27 01:51:31;;;;;;;22.10;5.22;;;;;;;;;;5027661;28;20409;-77
2022/11/27 01:53:59;;;;;;;21.40;5.63;;;;;;;;;;5026927;28;20412;-78
2022/11/27 01:56:27;;;;;;;21.10;5.60;;;;;;;;;;5023315;28;20045;-76
2022/11/27 01:58:56;;;;;;;21.67;6.45;;;;;;;;;;5020015;28;20060;-79
2022/11/27 02:01:24;;;;;;;18.42;5.30;;;;;;;;;;5026957;28;20065;-76
2022/11/27 02:03:52;;;;;;;23.98;5.60;;;;;;;;;;5021017;28;20048;-76
2022/11/27 02:06:19;;;;;;;19.00;5.13;;;;;;;;;;5024337;28;20041;-76
2022/11/27 02:08:46;;;;;;;21.60;5.45;;;;;;;;;;5025177;28;20145;-77
2022/11/27 02:11:16;;;;;;;24.73;5.53;;;;;;;;;;5020564;28;20136;-76
2022/11/27 02:13:45;;;;;;;21.15;5.50;;;;;;;;;;5024319;28;20045;-77
2022/11/27 02:16:18;;;;;;;22.83;5.03;;;;;;;;;;5023359;28;20065;-75
2022/11/27 02:18:49;;;;;;;27.25;5.50;;;;;;;;;;5024505;28;21171;-77
2022/11/27 02:21:19;;;;;;;22.40;5.55;;;;;;;;;;5030767;28;20115;-77
2022/11/27 02:24:10;;;;;;;19.50;4.93;;;;;;;;;;5029587;28;20049;-77
2022/11/27 02:27:08;;;;;;;19.42;4.75;;;;;;;;;;5023589;28;20529;-76
2022/11/27 02:29:37;;;;;;;20.15;4.57;;;;;;;;;;4946754;28;20410;-76
2022/11/27 02:32:09;;;;;;;21.20;5.10;;;;;;;;;;5010453;28;20045;-76
2022/11/27 02:34:38;;;;;;;21.23;4.47;;;;;;;;;;5029420;28;20056;-78
2022/11/27 02:37:09;;;;;;;27.98;6.07;;;;;;;;;;5020976;28;20049;-77
2022/11/27 02:39:39;;;;;;;16.40;4.45;;;;;;;;;;5025381;28;20056;-77
2022/11/27 02:42:08;;;;;;;17.88;4.25;;;;;;;;;;5027007;28;20423;-77
2022/11/27 02:44:38;;;;;;;16.30;4.88;;;;;;;;;;5027830;28;20523;-76
2022/11/27 02:47:06;;;;;;;23.95;4.85;;;;;;;;;;5027489;28;20045;-76
2022/11/27 02:49:34;;;;;;;21.95;5.30;;;;;;;;;;5026090;28;20060;-76
2022/11/27 02:52:02;;;;;;;19.98;4.35;;;;;;;;;;5025531;28;20060;-76
2022/11/27 02:54:30;;;;;;;17.80;4.40;;;;;;;;;;5025655;28;20131;-78
2022/11/27 02:56:59;;;;;;;18.45;4.90;;;;;;;;;;5026878;28;20045;-77
2022/11/27 02:59:28;;;;;;;21.08;5.43;;;;;;;;;;5023065;28;20045;-77
2022/11/27 03:01:59;;;;;;;15.10;4.35;;;;;;;;;;5023522;28;20492;-76
2022/11/27 03:04:28;;;;;;;21.42;4.95;;;;;;;;;;5025055;28;20060;-77
2022/11/27 03:06:58;;;;;;;16.55;3.75;;;;;;;;;;5027336;28;20171;-78
2022/11/27 03:09:27;;;;;;;17.40;3.83;;;;;;;;;;5023818;28;20064;-78
2022/11/27 03:11:55;;;;;;;16.30;4.07;;;;;;;;;;5022046;28;20057;-77
2022/11/27 03:14:23;;;;;;;11.27;4.38;;;;;;;;;;5024163;28;20060;-79
2022/11/27 03:16:58;;;;;;;18.35;4.45;;;;;;;;;;5028009;28;20049;-75
2022/11/27 03:19:28;;;;;;;21.58;4.47;;;;;;;;;;5023836;28;20049;-77
2022/11/27 03:21:57;;;;;;;19.95;4.40;;;;;;;;;;5025750;28;20064;-77
2022/11/27 03:24:24;;;;;;;16.77;4.55;;;;;;;;;;5019968;28;20056;-76
2022/11/27 03:26:51;;;;;;;18.27;5.15;;;;;;;;;;5023835;28;20053;-77
2022/11/27 03:29:22;;;;;;;15.90;4.30;;;;;;;;;;5023090;28;20053;-78
2022/11/27 03:31:49;;;;;;;21.52;4.60;;;;;;;;;;5021924;28;20416;-78
2022/11/27 03:34:20;;;;;;;16.40;4.22;;;;;;;;;;5033569;28;20103;-76
2022/11/27 03:36:48;;;;;;;18.88;4.57;;;;;;;;;;5034258;28;20361;-77
2022/11/27 03:39:16;;;;;;;21.63;5.53;;;;;;;;;;5034789;28;20075;-75
2022/11/27 03:41:47;;;;;;;17.45;4.50;;;;;;;;;;5020291;28;20625;-79
2022/11/27 03:44:21;;;;;;;15.02;4.90;;;;;;;;;;5033738;28;20067;-76
2022/11/27 03:46:52;;;;;;;16.10;4.65;;;;;;;;;;5025189;28;20049;-77
2022/11/27 03:49:23;;;;;;;18.55;5.10;;;;;;;;;;5026999;28;20826;-76
2022/11/27 03:51:53;;;;;;;19.55;4.75;;;;;;;;;;5031905;28;20130;-78
2022/11/27 03:54:24;;;;;;;20.75;5.50;;;;;;;;;;5028360;28;20053;-77
2022/11/27 03:56:56;;;;;;;16.58;4.40;;;;;;;;;;5035146;28;20045;-78
2022/11/27 03:59:25;;;;;;;16.50;4.67;;;;;;;;;;5044314;28;20055;-77
2022/11/27 04:01:53;;;;;;;14.38;4.70;;;;;;;;;;5028844;28;20052;-77
2022/11/27 04:04:20;;;;;;;16.98;4.20;;;;;;;;;;5030216;28;20045;-77
2022/11/27 04:06:47;;;;;;;15.48;4.72;;;;;;;;;;5031176;28;20048;-76
2022/11/27 04:09:16;;;;;;;17.20;4.85;;;;;;;;;;5028785;28;20522;-76
2022/11/27 04:11:43;;;;;;;17.10;4.97;;;;;;;;;;5030908;28;20049;-76
2022/11/27 04:14:10;;;;;;;13.05;4.80;;;;;;;;;;5027419;28;20060;-78
2022/11/27 04:16:38;;;;;;;18.95;5.85;;;;;;;;;;5029665;28;20056;-78
2022/11/27 04:19:05;;;;;;;15.93;5.00;;;;;;;;;;5029567;28;20049;-77
2022/11/27 04:21:32;;;;;;;20.15;5.40;;;;;;;;;;5029799;28;20045;-77
2022/11/27 04:23:59;;;;;;;18.77;5.03;;;;;;;;;;5024165;28;20080;-78
2022/11/27 04:26:28;;;;;;;20.17;4.57;;;;;;;;;;5028313;28;20076;-77
2022/11/27 04:28:55;;;;;;;16.10;4.75;;;;;;;;;;5029274;28;20045;-78
2022/11/27 04:31:22;;;;;;;14.65;5.18;;;;;;;;;;5026400;28;20056;-77
2022/11/27 04:33:49;;;;;;;17.33;5.28;;;;;;;;;;5026085;28;20064;-78
2022/11/27 04:36:17;;;;;;;20.58;4.80;;;;;;;;;;5026809;28;20124;-77
2022/11/27 04:38:44;;;;;;;16.90;5.50;;;;;;;;;;5025494;28;20059;-76
2022/11/27 04:41:11;;;;;;;16.85;4.97;;;;;;;;;;5020119;28;20071;-77
2022/11/27 04:43:40;;;;;;;17.42;5.70;;;;;;;;;;5026594;28;20056;-77
2022/11/27 04:46:07;;;;;;;14.10;4.40;;;;;;;;;;5019108;28;20049;-77
2022/11/27 04:48:34;;;;;;;14.75;4.97;;;;;;;;;;5024939;28;20045;-77
2022/11/27 04:51:02;;;;;;;16.77;5.65;;;;;;;;;;5019555;28;20415;-76
2022/11/27 04:53:29;;;;;;;16.33;5.20;;;;;;;;;;5027161;28;20044;-76
2022/11/27 04:55:56;;;;;;;14.20;5.05;;;;;;;;;;5028142;28;20056;-76
2022/11/27 04:58:23;;;;;;;19.55;4.50;;;;;;;;;;5028683;28;20511;-77
2022/11/27 05:00:52;;;;;;;18.30;5.07;;;;;;;;;;5027716;28;20056;-78
2022/11/27 05:03:19;;;;;;;14.27;4.53;;;;;;;;;;5027694;28;20063;-78
2022/11/27 05:05:46;;;;;;;16.90;4.57;;;;;;;;;;5026811;28;20123;-77
2022/11/27 05:08:13;;;;;;;17.38;4.82;;;;;;;;;;5031227;28;20173;-77
2022/11/27 05:10:41;;;;;;;13.40;5.00;;;;;;;;;;5030207;28;20102;-77
2022/11/27 05:13:09;;;;;;;15.35;4.55;;;;;;;;;;5030419;28;20044;-78
2022/11/27 05:15:36;;;;;;;15.20;5.13;;;;;;;;;;5030518;28;20064;-76
2022/11/27 05:18:04;;;;;;;18.13;4.65;;;;;;;;;;5031889;28;20415;-76
2022/11/27 05:20:32;;;;;;;19.98;5.53;;;;;;;;;;5032529;28;20396;-78
2022/11/27 05:22:59;;;;;;;13.52;4.72;;;;;;;;;;5034663;28;20805;-80
2022/11/27 05:25:26;;;;;;;16.80;5.65;;;;;;;;;;5042282;28;20064;-76
2022/11/27 05:27:53;;;;;;;21.17;5.32;;;;;;;;;;5036751;28;20052;-78
2022/11/27 05:30:21;;;;;;;15.57;4.90;;;;;;;;;;5030225;28;20060;-77
2022/11/27 05:32:48;;;;;;;15.00;5.32;;;;;;;;;;5035681;28;20067;-77
2022/11/27 05:35:17;;;;;;;17.00;5.30;;;;;;;;;;5030626;28;20056;-77
2022/11/27 05:37:44;;;;;;;14.20;5.13;;;;;;;;;;5033040;28;20049;-77
2022/11/27 05:40:11;;;;;;;15.35;4.57;;;;;;;;;;5031887;28;20053;-76
2022/11/27 05:42:39;;;;;;;11.70;4.68;;;;;;;;;;5036303;28;20069;-77
2022/11/27 05:45:06;;;;;;;13.63;4.43;;;;;;;;;;5037010;28;20053;-76
2022/11/27 05:47:33;;;;;;;11.95;4.80;;;;;;;;;;5031297;28;20059;-76
2022/11/27 05:50:01;;;;;;;15.85;4.97;;;;;;;;;;5035830;28;20053;-76
2022/11/27 05:52:29;;;;;;;13.10;4.78;;;;;;;;;;5040148;28;20059;-76
2022/11/27 05:54:57;;;;;;;20.27;4.63;;;;;;;;;;5032825;28;20060;-76
2022/11/27 05:57:24;;;;;;;17.70;4.93;;;;;;;;;;5032658;28;20052;-78
2022/11/27 05:59:51;;;;;;;18.00;5.18;;;;;;;;;;5035820;28;20044;-76
2022/11/27 06:02:18;;;;;;;14.20;4.57;;;;;;;;;;5037840;28;20067;-78
2022/11/27 06:04:46;;;;;;;11.93;4.38;;;;;;;;;;5033347;28;20053;-79
2022/11/27 06:07:13;;;;;;;15.20;4.35;;;;;;;;;;5035361;28;20060;-79
2022/11/27 06:09:41;;;;;;;16.67;4.72;;;;;;;;;;5032817;28;20053;-76
2022/11/27 06:12:09;;;;;;;16.20;4.45;;;;;;;;;;5031028;28;20048;-75
2022/11/27 06:14:36;;;;;;;15.68;4.35;;;;;;;;;;5028810;28;20076;-78
2022/11/27 06:17:04;;;;;;;14.93;3.95;;;;;;;;;;5037450;28;20534;-80
2022/11/27 06:19:31;;;;;;;13.77;4.03;;;;;;;;;;5031019;28;20057;-77
2022/11/27 06:21:58;;;;;;;12.38;4.07;;;;;;;;;;5037019;28;20041;-79
2022/11/27 06:24:25;;;;;;;17.55;4.40;;;;;;;;;;5034162;28;20057;-78
2022/11/27 06:26:54;;;;;;;12.82;3.70;;;;;;;;;;5035434;28;20055;-78
2022/11/27 06:29:21;;;;;;;17.48;4.35;;;;;;;;;;5033819;28;20056;-76
2022/11/27 06:31:49;;;;;;;11.63;4.22;;;;;;;;;;5031636;28;20049;-77
2022/11/27 06:34:16;;;;;;;14.18;3.83;;;;;;;;;;5035520;28;20049;-76
2022/11/27 06:36:43;;;;;;;13.88;3.90;;;;;;;;;;5037075;28;20139;-76
2022/11/27 06:39:11;;;;;;;15.68;4.75;;;;;;;;;;5028728;28;20499;-77
2022/11/27 06:41:39;;;;;;;11.02;3.40;;;;;;;;;;5036849;28;20061;-78
2022/11/27 06:44:07;;;;;;;12.60;3.60;;;;;;;;;;5034954;28;20060;-76
2022/11/27 06:46:34;;;;;;;14.77;4.45;;;;;;;;;;5034346;28;20053;-77
2022/11/27 06:49:02;;;;;;;11.93;4.10;;;;;;;;;;5029769;28;20131;-77
2022/11/27 06:51:30;;;;;;;15.38;3.45;;;;;;;;;;5032077;28;20057;-75
2022/11/27 06:53:59;;;;;;;12.25;4.78;;;;;;;;;;5032608;28;20068;-80
2022/11/27 06:56:28;;;;;;;14.35;4.05;;;;;;;;;;5036031;28;20056;-78
2022/11/27 06:58:55;;;;;;;13.23;3.35;;;;;;;;;;5039552;28;20055;-79
2022/11/27 07:01:25;;;;;;;14.10;3.58;;;;;;;;;;5029302;28;20049;-78
2022/11/27 07:03:52;;;;;;;9.85;3.40;;;;;;;;;;5020982;28;20059;-77
2022/11/27 07:06:20;;;;;;;11.05;3.50;;;;;;;;;;5017708;28;20080;-76
2022/11/27 07:08:48;;;;;;;14.25;3.33;;;;;;;;;;5022494;28;20048;-77
2022/11/27 07:11:17;;;;;;;13.57;3.42;;;;;;;;;;5023998;28;20069;-76
2022/11/27 07:13:44;;;;;;;16.75;3.78;;;;;;;;;;5026105;28;20049;-76
2022/11/27 07:16:12;;;;;;;12.55;3.85;;;;;;;;;;5027726;28;20084;-76
2022/11/27 07:18:42;;;;;;;16.85;3.50;;;;;;;;;;5040152;28;20048;-76
2022/11/27 07:21:09;;;;;;;13.75;3.42;;;;;;;;;;5032303;28;20052;-76
2022/11/27 07:23:37;;;;;;;11.13;3.22;;;;;;;;;;5035622;28;20052;-75
2022/11/27 07:26:06;;;;;;;10.15;3.40;;;;;;;;;;5025571;28;20093;-76
2022/11/27 07:28:33;;;;;;;10.65;3.17;;;;;;;;;;5029103;28;20056;-77
2022/11/27 07:31:03;;;;;;;11.88;3.15;;;;;;;;;;5023034;28;20504;-77
2022/11/27 07:33:30;;;;;;;12.43;3.65;;;;;;;;;;5023620;28;20060;-77
2022/11/27 07:36:03;;;;;;;13.20;3.28;;;;;;;;;;5024395;28;20063;-77
2022/11/27 07:38:30;;;;;;;10.55;3.60;;;;;;;;;;5016824;28;20044;-78
2022/11/27 07:41:00;;;;;;;11.02;3.60;;;;;;;;;;5024339;28;20053;-78
2022/11/27 07:43:27;;;;;;;14.43;3.53;;;;;;;;;;5023857;28;20110;-78
2022/11/27 07:45:54;;;;;;;18.48;3.42;;;;;;;;;;5028589;28;20057;-78
2022/11/27 07:48:22;;;;;;;11.07;3.20;;;;;;;;;;5028196;28;20045;-77
2022/11/27 07:50:49;;;;;;;12.25;3.00;;;;;;;;;;5024895;28;20135;-77
2022/11/27 07:53:18;;;;;;;11.95;3.03;;;;;;;;;;5028218;28;20553;-77
2022/11/27 07:55:45;;;;;;;13.23;3.33;;;;;;;;;;5035157;28;20523;-80
2022/11/27 07:58:12;;;;;;;17.20;3.78;;;;;;;;;;5032913;28;20049;-78
2022/11/27 08:00:39;;;;;;;8.98;3.35;;;;;;;;;;5038718;28;20048;-77
2022/11/27 08:03:06;;;;;;;14.30;3.95;;;;;;;;;;5032212;28;20934;-76
2022/11/27 08:05:34;;;;;;;15.27;4.65;;;;;;;;;;5036846;28;20055;-77
2022/11/27 08:08:03;;;;;;;15.45;3.55;;;;;;;;;;5032824;28;20047;-77
2022/11/27 08:10:31;;;;;;;10.90;3.90;;;;;;;;;;5035982;28;20063;-78
2022/11/27 08:12:58;;;;;;;12.55;3.58;;;;;;;;;;5025494;28;20060;-78
2022/11/27 08:15:26;;;;;;;10.45;4.13;;;;;;;;;;5032908;28;20053;-78
2022/11/27 08:17:53;;;;;;;12.98;3.70;;;;;;;;;;5027970;28;20124;-77
2022/11/27 08:20:20;;;;;;;11.18;3.55;;;;;;;;;;5023968;28;20500;-77
2022/11/27 08:22:48;;;;;;;13.40;3.55;;;;;;;;;;5023694;28;20103;-78
2022/11/27 08:25:15;;;;;;;17.17;3.92;;;;;;;;;;5026291;28;21552;-78
2022/11/27 08:27:45;;;;;;;13.50;4.10;;;;;;;;;;5029072;28;20072;-78
2022/11/27 08:30:12;;;;;;;15.43;4.13;;;;;;;;;;5023538;28;20064;-78
2022/11/27 08:32:39;;;;;;;12.07;4.25;;;;;;;;;;5030485;28;20381;-79
2022/11/27 08:35:08;;;;;;;13.63;3.95;;;;;;;;;;5024571;28;20053;-80
2022/11/27 08:37:35;;;;;;;10.02;3.72;;;;;;;;;;5032391;28;20106;-78
2022/11/27 08:40:02;;;;;;;8.25;3.40;;;;;;;;;;5029987;28;20062;-79
2022/11/27 08:42:30;;;;;;;15.60;4.60;;;;;;;;;;5031798;28;20041;-78
2022/11/27 08:44:58;;;;;;;15.25;3.92;;;;;;;;;;5035111;28;20128;-78
2022/11/27 08:47:26;;;;;;;18.58;3.80;;;;;;;;;;5038956;28;20058;-78
2022/11/27 08:49:53;;;;;;;13.25;3.80;;;;;;;;;;5031134;28;20056;-78
2022/11/27 08:52:20;;;;;;;13.48;4.28;;;;;;;;;;5028063;28;20061;-79
2022/11/27 08:54:47;;;;;;;12.40;3.78;;;;;;;;;;5034142;28;20061;-78
2022/11/27 08:57:17;;;;;;;16.42;4.30;;;;;;;;;;5028710;28;20059;-77
2022/11/27 08:59:44;;;;;;;12.57;3.67;;;;;;;;;;5033445;28;20076;-80
2022/11/27 09:02:13;;;;;;;14.75;4.60;;;;;;;;;;5033319;28;20419;-79
2022/11/27 09:04:40;;;;;;;15.73;4.00;;;;;;;;;;5030016;28;20056;-77
2022/11/27 09:07:10;;;;;;;14.38;3.67;;;;;;;;;;5032502;28;20077;-77
2022/11/27 09:09:38;;;;;;;11.30;4.00;;;;;;;;;;5035048;28;20521;-78
2022/11/27 09:12:05;;;;;;;16.20;5.07;;;;;;;;;;5030376;28;20059;-80
2022/11/27 09:14:33;;;;;;;12.93;3.67;;;;;;;;;;5030197;28;20052;-79
2022/11/27 09:17:04;;;;;;;16.08;4.30;;;;;;;;;;5048857;28;20041;-79
2022/11/27 09:19:38;;;;;;;14.27;4.03;;;;;;;;;;5048067;28;20059;-79
2022/11/27 09:22:05;;;;;;;14.15;4.22;;;;;;;;;;5029372;28;20057;-78
2022/11/27 09:24:33;;;;;;;16.45;4.68;;;;;;;;;;5031238;28;20045;-78
2022/11/27 09:27:01;;;;;;;12.73;4.32;;;;;;;;;;5031227;28;20132;-77
2022/11/27 09:29:38;;;;;;;13.52;4.50;;;;;;;;;;5053555;28;20047;-79
2022/11/27 09:32:14;;;;;;;16.48;4.20;;;;;;;;;;5052359;28;20071;-81
2022/11/27 09:34:43;;;;;;;15.27;4.22;;;;;;;;;;5032266;28;20061;-79
2022/11/27 09:37:17;;;;;;;14.40;4.35;;;;;;;;;;5031588;28;20060;-78
2022/11/27 09:39:54;;;;;;;15.85;4.45;;;;;;;;;;5025033;28;20041;-79
2022/11/27 09:42:38;;;;;;;13.25;4.55;;;;;;;;;;5050237;28;20458;-78
2022/11/27 09:45:08;;;;;;;12.48;4.28;;;;;;;;;;5024713;28;20442;-78
2022/11/27 09:47:43;;;;;;;15.20;5.20;;;;;;;;;;5010427;28;20306;-78
2022/11/27 09:50:14;;;;;;;16.85;4.40;;;;;;;;;;5027823;28;20080;-77
2022/11/27 09:52:43;;;;;;;17.90;4.65;;;;;;;;;;5046310;28;20172;-77
2022/11/27 09:55:18;;;;;;;17.83;4.78;;;;;;;;;;5028767;28;20060;-76
2022/11/27 09:57:52;;;;;;;20.10;5.18;;;;;;;;;;5049114;28;20071;-77
2022/11/27 10:00:22;;;;;;;15.02;4.55;;;;;;;;;;5030798;28;20140;-76
2022/11/27 10:02:52;;;;;;;13.30;5.13;;;;;;;;;;5027401;28;20057;-75
2022/11/27 10:05:22;;;;;;;10.77;4.25;;;;;;;;;;5017979;28;20480;-75
2022/11/27 10:08:08;;;;;;;14.85;6.22;;;;;;;;;;5048624;28;20049;-75
2022/11/27 10:10:45;;;;;;;15.63;4.82;;;;;;;;;;5051169;28;20053;-75
2022/11/27 10:13:17;;;;;;;14.35;4.57;;;;;;;;;;5054911;28;20433;-75
2022/11/27 10:15:48;;;;;;;18.27;5.22;;;;;;;;;;5053289;28;20056;-75
2022/11/27 10:18:18;;;;;;;10.93;4.68;;;;;;;;;;5035908;28;20151;-76
2022/11/27 10:20:49;;;;;;;12.70;5.00;;;;;;;;;;5022567;28;20060;-76
2022/11/27 10:23:21;;;;;;;17.98;5.45;;;;;;;;;;5059045;28;20508;-75
2022/11/27 10:25:50;;;;;;;12.10;5.20;;;;;;;;;;5042425;28;20053;-75
2022/11/27 10:28:24;;;;;;;12.65;4.82;;;;;;;;;;5045926;28;20051;-76
2022/11/27 10:30:53;;;;;;;14.35;5.30;;;;;;;;;;5038183;28;20053;-75
2022/11/27 10:33:24;;;;;;;18.30;5.32;;;;;;;;;;5042017;28;20565;-75
2022/11/27 10:35:59;;;;;;;17.15;5.10;;;;;;;;;;5051043;28;20072;-74
2022/11/27 10:38:28;;;;;;;21.98;5.68;;;;;;;;;;5046906;28;20504;-75
2022/11/27 10:41:05;;;;;;;15.63;5.45;;;;;;;;;;5031075;28;20053;-75
2022/11/27 10:43:33;;;;;;;20.35;5.43;;;;;;;;;;5029223;28;20053;-74
2022/11/27 10:46:03;;;;;;;17.60;5.60;;;;;;;;;;5051047;28;20492;-75
2022/11/27 10:48:31;;;;;;;13.80;5.30;;;;;;;;;;5028241;28;20051;-76
2022/11/27 10:51:01;;;;;;;14.75;5.78;;;;;;;;;;5031751;28;20075;-76
2022/11/27 10:53:30;;;;;;;19.40;5.50;;;;;;;;;;5036953;28;20147;-77
2022/11/27 10:56:06;;;;;;;22.45;6.25;;;;;;;;;;5029830;28;20422;-76
2022/11/27 10:58:37;;;;;;;20.10;6.13;;;;;;;;;;5027500;28;20492;-75
2022/11/27 11:01:07;;;;;;;16.77;6.55;;;;;;;;;;5030415;28;20065;-76
2022/11/27 11:03:37;;;;;;;16.08;5.93;;;;;;;;;;5053381;28;20080;-75
2022/11/27 11:06:07;;;;;;;26.67;6.93;;;;;;;;;;5032487;28;20049;-76
2022/11/27 11:08:35;;;;;;;18.65;6.72;;;;;;;;;;5028904;28;20041;-75
2022/11/27 11:11:04;;;;;;;19.10;6.75;;;;;;;;;;5029382;28;20041;-75
2022/11/27 11:13:32;;;;;;;14.07;6.13;;;;;;;;;;5048939;28;20505;-74
2022/11/27 11:16:01;;;;;;;22.02;7.05;;;;;;;;;;5028031;28;20051;-74
2022/11/27 11:18:29;;;;;;;19.65;6.80;;;;;;;;;;5043695;28;20059;-74
2022/11/27 11:20:57;;;;;;;14.48;5.78;;;;;;;;;;5024368;28;20491;-75
2022/11/27 11:23:31;;;;;;;16.38;6.47;;;;;;;;;;5045954;28;20049;-78
2022/11/27 11:26:01;;;;;;;21.15;6.50;;;;;;;;;;5040086;28;20041;-74
2022/11/27 11:28:29;;;;;;;11.95;5.70;;;;;;;;;;5028936;28;20052;-74
2022/11/27 11:30:58;;;;;;;17.35;6.40;;;;;;;;;;5030310;28;20049;-74
2022/11/27 11:33:26;;;;;;;15.57;6.30;;;;;;;;;;5028867;28;20072;-74
2022/11/27 11:35:55;;;;;;;15.32;6.43;;;;;;;;;;5045410;28;20049;-74
2022/11/27 11:38:27;;;;;;;18.67;6.72;;;;;;;;;;5024295;28;20523;-74
2022/11/27 11:41:00;;;;;;;22.95;7.20;;;;;;;;;;5026705;28;20045;-75
2022/11/27 11:43:28;;;;;;;17.45;6.35;;;;;;;;;;5027368;28;20052;-74
2022/11/27 11:46:05;;;;;;;13.75;6.45;;;;;;;;;;5018657;28;20455;-74
2022/11/27 11:48:33;;;;;;;18.55;6.68;;;;;;;;;;5030204;28;20075;-75
2022/11/27 11:51:02;;;;;;;16.20;6.53;;;;;;;;;;5020855;28;20049;-76
2022/11/27 11:53:34;;;;;;;17.52;6.88;;;;;;;;;;5031270;28;20101;-75
2022/11/27 11:56:06;;;;;;;19.95;7.20;;;;;;;;;;5029149;28;20076;-74
2022/11/27 11:58:39;;;;;;;15.48;6.07;;;;;;;;;;5032292;28;20438;-75
2022/11/27 12:01:25;;;;;;;14.80;6.50;;;;;;;;;;5032638;28;20052;-74
2022/11/27 12:03:57;;;;;;;17.85;6.93;;;;;;;;;;5030673;28;20053;-74
2022/11/27 12:06:30;;;;;;;15.13;7.10;;;;;;;;;;5034219;28;20053;-75
2022/11/27 12:09:07;;;;;;;24.35;8.40;;;;;;;;;;5030554;28;20048;-75
2022/11/27 12:11:42;;;;;;;18.85;8.38;;;;;;;;;;5029142;28;20052;-74
2022/11/27 12:14:15;;;;;;;25.58;9.02;;;;;;;;;;5028381;28;20064;-74
2022/11/27 12:16:49;;;;;;;21.02;7.75;;;;;;;;;;5020649;28;20082;-74
2022/11/27 12:19:30;;;;;;;22.38;8.93;;;;;;;;;;5029296;28;20496;-74
2022/11/27 12:22:02;;;;;;;17.48;7.82;;;;;;;;;;5027175;28;20053;-75
2022/11/27 12:24:37;;;;;;;20.45;7.93;;;;;;;;;;5028281;28;20404;-73
2022/11/27 12:27:12;;;;;;;21.52;8.70;;;;;;;;;;5027756;28;20049;-75
2022/11/27 12:29:50;;;;;;;25.10;8.75;;;;;;;;;;5024703;28;20077;-74
2022/11/27 12:32:34;;;;;;;20.30;8.57;;;;;;;;;;5025899;28;20071;-75
2022/11/27 12:35:07;;;;;;;23.38;8.95;;;;;;;;;;5025540;28;20530;-74
2022/11/27 12:37:41;;;;;;;24.83;9.55;;;;;;;;;;5028019;28;20086;-75
2022/11/27 12:40:17;;;;;;;20.35;7.97;;;;;;;;;;5027156;28;20086;-74
2022/11/27 12:42:51;;;;;;;19.13;7.55;;;;;;;;;;5028726;28;20049;-75
2022/11/27 12:45:21;;;;;;;20.42;7.45;;;;;;;;;;5021210;28;20064;-74
2022/11/27 12:47:49;;;;;;;15.50;7.20;;;;;;;;;;5028917;28;20053;-73
2022/11/27 12:50:22;;;;;;;17.38;7.88;;;;;;;;;;5027698;28;20049;-74
2022/11/27 12:52:53;;;;;;;17.60;7.20;;;;;;;;;;5030120;28;20118;-74
2022/11/27 12:55:21;;;;;;;19.65;8.40;;;;;;;;;;5029000;28;20041;-75
2022/11/27 12:57:52;;;;;;;17.70;7.80;;;;;;;;;;5028878;28;20076;-76
2022/11/27 13:00:20;;;;;;;17.33;7.45;;;;;;;;;;5028362;28;20052;-74
2022/11/27 13:02:54;;;;;;;17.60;8.15;;;;;;;;;;5032983;28;20064;-74
2022/11/27 13:05:23;;;;;;;15.20;7.30;;;;;;;;;;5047149;28;20045;-73
2022/11/27 13:07:52;;;;;;;18.10;7.32;;;;;;;;;;5030054;28;20049;-75
2022/11/27 13:10:23;;;;;;;23.90;8.27;;;;;;;;;;5029594;28;20045;-74
2022/11/27 13:12:54;;;;;;;17.00;7.75;;;;;;;;;;5025598;28;20053;-76
2022/11/27 13:15:24;;;;;;;19.08;7.90;;;;;;;;;;5024785;28;20059;-75
2022/11/27 13:17:55;;;;;;;19.17;7.15;;;;;;;;;;5024717;28;20045;-75
2022/11/27 13:20:25;;;;;;;26.52;7.85;;;;;;;;;;5029299;28;20056;-74
2022/11/27 13:22:52;;;;;;;18.75;7.68;;;;;;;;;;5039596;28;20045;-74
2022/11/27 13:25:19;;;;;;;20.65;8.27;;;;;;;;;;5026729;28;20522;-76
2022/11/27 13:27:48;;;;;;;17.75;7.80;;;;;;;;;;5025427;28;20084;-74
2022/11/27 13:30:22;;;;;;;17.90;7.30;;;;;;;;;;5025978;28;20153;-75
2022/11/27 13:32:50;;;;;;;19.30;9.20;;;;;;;;;;5031987;28;20061;-76
2022/11/27 13:35:22;;;;;;;18.77;8.10;;;;;;;;;;5032377;28;20052;-74
2022/11/27 13:37:55;;;;;;;14.57;8.00;;;;;;;;;;5030199;28;20045;-75
2022/11/27 13:40:23;;;;;;;20.93;9.03;;;;;;;;;;5032019;28;20041;-74
2022/11/27 13:42:54;;;;;;;19.92;8.30;;;;;;;;;;5031654;28;20045;-74
2022/11/27 13:45:23;;;;;;;17.40;7.63;;;;;;;;;;5034836;28;20503;-74
2022/11/27 13:47:51;;;;;;;22.17;8.15;;;;;;;;;;5032497;28;20084;-75
2022/11/27 13:50:19;;;;;;;15.60;7.60;;;;;;;;;;5030120;28;20059;-73
2022/11/27 13:52:56;;;;;;;16.15;7.55;;;;;;;;;;5033002;28;20049;-74
2022/11/27 13:55:24;;;;;;;21.92;7.90;;;;;;;;;;5030682;28;20053;-74
2022/11/27 13:57:53;;;;;;;18.77;8.02;;;;;;;;;;5031162;28;20078;-73
2022/11/27 14:00:31;;;;;;;18.48;8.20;;;;;;;;;;5030105;28;20047;-74
2022/11/27 14:02:59;;;;;;;17.38;7.85;;;;;;;;;;5033475;28;20063;-76
2022/11/27 14:05:35;;;;;;;18.20;7.30;;;;;;;;;;5030062;28;20140;-74
2022/11/27 14:08:02;;;;;;;15.32;7.25;;;;;;;;;;5032040;28;20095;-74
2022/11/27 14:10:31;;;;;;;18.35;7.75;;;;;;;;;;5031949;28;20049;-75
2022/11/27 14:13:00;;;;;;;17.27;7.38;;;;;;;;;;5029747;28;20415;-75
2022/11/27 14:15:28;;;;;;;22.17;7.43;;;;;;;;;;5046430;28;20487;-74
2022/11/27 14:18:07;;;;;;;19.65;7.88;;;;;;;;;;5030193;28;20514;-74
2022/11/27 14:20:36;;;;;;;18.30;7.30;;;;;;;;;;5031267;28;20053;-76
2022/11/27 14:23:04;;;;;;;14.13;6.93;;;;;;;;;;5030405;28;20045;-75
2022/11/27 14:25:32;;;;;;;14.68;8.10;;;;;;;;;;5024298;28;20491;-75
2022/11/27 14:28:01;;;;;;;13.80;7.07;;;;;;;;;;5031205;28;20407;-74
2022/11/27 14:30:31;;;;;;;19.45;8.95;;;;;;;;;;5028485;28;20046;-74
2022/11/27 14:32:59;;;;;;;18.33;8.35;;;;;;;;;;5030459;28;20049;-74
2022/11/27 14:35:28;;;;;;;22.95;9.48;;;;;;;;;;5032275;28;20499;-74
2022/11/27 14:38:07;;;;;;;18.42;8.27;;;;;;;;;;5031357;28;20048;-75
2022/11/27 14:40:35;;;;;;;15.95;7.65;;;;;;;;;;5027535;28;20103;-75
2022/11/27 14:43:14;;;;;;;18.13;7.82;;;;;;;;;;5032134;28;20041;-75